sensor_id;sensor_type;location;lat;lon;timestamp;temperature;humidity
4207;DHT22;2117;47.972;7.830;2023-06-10T01:02:25;19.60;96.20
4207;DHT22;2117;47.972;7.830;2023-06-10T01:04:51;19.60;96.80
4207;DHT22;2117;47.972;7.830;2023-06-10T01:07:25;19.50;96.80
4207;DHT22;2117;47.972;7.830;2023-06-10T01:09:59;19.40;96.80
4207;DHT22;2117;47.972;7.830;2023-06-10T01:12:39;19.40;97.00
4207;DHT22;2117;47.972;7.830;2023-06-10T01:15:07;19.40;97.10
4207;DHT22;2117;47.972;7.830;2023-06-10T01:17:34;19.30;97.30
4207;DHT22;2117;47.972;7.830;2023-06-10T01:20:01;19.30;97.50
4207;DHT22;2117;47.972;7.830;2023-06-10T01:22:37;19.20;97.70
4207;DHT22;2117;47.972;7.830;2023-06-10T01:25:02;19.20;97.90
4207;DHT22;2117;47.972;7.830;2023-06-10T01:27:32;19.20;97.90
4207;DHT22;2117;47.972;7.830;2023-06-10T01:30:03;19.10;98.10
4207;DHT22;2117;47.972;7.830;2023-06-10T01:32:34;19.10;98.50
4207;DHT22;2117;47.972;7.830;2023-06-10T01:35:03;19.00;98.50
4207;DHT22;2117;47.972;7.830;2023-06-10T01:37:31;19.00;98.60
4207;DHT22;2117;47.972;7.830;2023-06-10T01:39:59;18.90;98.90
4207;DHT22;2117;47.972;7.830;2023-06-10T01:42:25;18.90;99.20
4207;DHT22;2117;47.972;7.830;2023-06-10T01:44:51;18.80;99.40
4207;DHT22;2117;47.972;7.830;2023-06-10T01:47:17;18.80;99.60
4207;DHT22;2117;47.972;7.830;2023-06-10T01:49:43;18.70;99.70
4207;DHT22;2117;47.972;7.830;2023-06-10T01:52:08;18.70;99.80
4207;DHT22;2117;47.972;7.830;2023-06-10T01:54:34;18.60;99.90
4207;DHT22;2117;47.972;7.830;2023-06-10T01:57:02;18.60;99.90
4207;DHT22;2117;47.972;7.830;2023-06-10T01:59:28;18.50;99.90
4207;DHT22;2117;47.972;7.830;2023-06-10T02:01:54;18.50;99.90
4207;DHT22;2117;47.972;7.830;2023-06-10T02:04:19;18.40;99.90
4207;DHT22;2117;47.972;7.830;2023-06-10T02:06:45;18.40;99.90
4207;DHT22;2117;47.972;7.830;2023-06-10T02:09:11;18.30;99.90
4207;DHT22;2117;47.972;7.830;2023-06-10T02:11:36;18.30;99.90
4207;DHT22;2117;47.972;7.830;2023-06-10T02:14:02;18.20;99.90
4207;DHT22;2117;47.972;7.830;2023-06-10T02:16:27;18.20;99.90
4207;DHT22;2117;47.972;7.830;2023-06-10T02:18:53;18.10;99.90
4207;DHT22;2117;47.972;7.830;2023-06-10T02:21:20;18.10;99.90
4207;DHT22;2117;47.972;7.830;2023-06-10T02:23:45;18.10;99.90
4207;DHT22;2117;47.972;7.830;2023-06-10T02:26:11;18.00;99.90
4207;DHT22;2117;47.972;7.830;2023-06-10T02:28:36;17.90;99.90
4207;DHT22;2117;47.972;7.830;2023-06-10T02:31:02;17.80;99.90
4207;DHT22;2117;47.972;7.830;2023-06-10T02:33:27;17.80;99.90
4207;DHT22;2117;47.972;7.830;2023-06-10T02:35:53;17.80;99.90
4207;DHT22;2117;47.972;7.830;2023-06-10T02:38:18;17.70;99.90
4207;DHT22;2117;47.972;7.830;2023-06-10T02:40:44;17.60;99.90
4207;DHT22;2117;47.972;7.830;2023-06-10T02:43:10;17.60;99.90
4207;DHT22;2117;47.972;7.830;2023-06-10T02:45:35;17.60;99.90
4207;DHT22;2117;47.972;7.830;2023-06-10T02:48:01;17.60;99.90
4207;DHT22;2117;47.972;7.830;2023-06-10T02:50:26;17.50;99.90
4207;DHT22;2117;47.972;7.830;2023-06-10T02:52:52;17.40;99.90
4207;DHT22;2117;47.972;7.830;2023-06-10T02:55:17;17.30;99.90
4207;DHT22;2117;47.972;7.830;2023-06-10T02:57:43;17.30;99.90
4207;DHT22;2117;47.972;7.830;2023-06-10T03:00:09;17.30;99.90
4207;DHT22;2117;47.972;7.830;2023-06-10T03:02:39;17.30;99.90
4207;DHT22;2117;47.972;7.830;2023-06-10T03:05:06;17.30;99.90
4207;DHT22;2117;47.972;7.830;2023-06-10T03:07:35;17.20;99.90
4207;DHT22;2117;47.972;7.830;2023-06-10T03:10:01;17.20;99.90
4207;DHT22;2117;47.972;7.830;2023-06-10T03:12:26;17.10;99.90
4207;DHT22;2117;47.972;7.830;2023-06-10T03:14:52;17.10;99.90
4207;DHT22;2117;47.972;7.830;2023-06-10T03:17:17;17.00;99.90
4207;DHT22;2117;47.972;7.830;2023-06-10T03:19:43;16.90;99.90
4207;DHT22;2117;47.972;7.830;2023-06-10T03:22:12;16.90;99.90
4207;DHT22;2117;47.972;7.830;2023-06-10T03:24:38;16.90;99.90
4207;DHT22;2117;47.972;7.830;2023-06-10T03:27:07;16.80;99.90
4207;DHT22;2117;47.972;7.830;2023-06-10T03:29:33;16.90;99.90
4207;DHT22;2117;47.972;7.830;2023-06-10T03:31:58;16.80;99.90
4207;DHT22;2117;47.972;7.830;2023-06-10T03:34:24;16.80;99.90
4207;DHT22;2117;47.972;7.830;2023-06-10T03:36:50;16.70;99.90
4207;DHT22;2117;47.972;7.830;2023-06-10T03:39:16;16.70;99.90
4207;DHT22;2117;47.972;7.830;2023-06-10T03:41:41;16.70;99.90
4207;DHT22;2117;47.972;7.830;2023-06-10T03:44:07;16.70;99.90
4207;DHT22;2117;47.972;7.830;2023-06-10T03:46:32;16.60;99.90
4207;DHT22;2117;47.972;7.830;2023-06-10T03:48:58;16.60;99.90
4207;DHT22;2117;47.972;7.830;2023-06-10T03:51:26;16.60;99.90
4207;DHT22;2117;47.972;7.830;2023-06-10T03:53:51;16.60;99.90
4207;DHT22;2117;47.972;7.830;2023-06-10T03:56:17;16.50;99.90
4207;DHT22;2117;47.972;7.830;2023-06-10T03:58:43;16.50;99.90
4207;DHT22;2117;47.972;7.830;2023-06-10T04:01:08;16.40;99.90
4207;DHT22;2117;47.972;7.830;2023-06-10T04:03:34;16.40;99.90
4207;DHT22;2117;47.972;7.830;2023-06-10T04:05:59;16.40;99.90
4207;DHT22;2117;47.972;7.830;2023-06-10T04:08:25;16.40;99.90
4207;DHT22;2117;47.972;7.830;2023-06-10T04:10:51;16.40;99.90
4207;DHT22;2117;47.972;7.830;2023-06-10T04:13:16;16.30;99.90
4207;DHT22;2117;47.972;7.830;2023-06-10T04:15:42;16.30;99.90
4207;DHT22;2117;47.972;7.830;2023-06-10T04:18:08;16.30;99.90
4207;DHT22;2117;47.972;7.830;2023-06-10T04:20:33;16.30;99.90
4207;DHT22;2117;47.972;7.830;2023-06-10T04:22:59;16.30;99.90
4207;DHT22;2117;47.972;7.830;2023-06-10T04:25:25;16.30;99.90
4207;DHT22;2117;47.972;7.830;2023-06-10T04:27:51;16.30;99.90
4207;DHT22;2117;47.972;7.830;2023-06-10T04:30:17;16.30;99.90
4207;DHT22;2117;47.972;7.830;2023-06-10T04:32:43;16.40;99.90
4207;DHT22;2117;47.972;7.830;2023-06-10T04:35:11;16.40;99.90
4207;DHT22;2117;47.972;7.830;2023-06-10T04:37:38;16.40;99.90
4207;DHT22;2117;47.972;7.830;2023-06-10T04:40:04;16.40;99.90
4207;DHT22;2117;47.972;7.830;2023-06-10T04:42:30;16.50;99.90
4207;DHT22;2117;47.972;7.830;2023-06-10T04:44:56;16.50;99.90
4207;DHT22;2117;47.972;7.830;2023-06-10T04:47:22;16.50;99.90
4207;DHT22;2117;47.972;7.830;2023-06-10T04:49:48;16.50;99.90
4207;DHT22;2117;47.972;7.830;2023-06-10T04:52:14;16.50;99.90
4207;DHT22;2117;47.972;7.830;2023-06-10T04:54:39;16.60;99.90
4207;DHT22;2117;47.972;7.830;2023-06-10T04:57:06;16.60;99.90
4207;DHT22;2117;47.972;7.830;2023-06-10T04:59:33;16.60;99.90
4207;DHT22;2117;47.972;7.830;2023-06-10T05:01:58;16.60;99.90
4207;DHT22;2117;47.972;7.830;2023-06-10T05:04:24;16.70;99.90
4207;DHT22;2117;47.972;7.830;2023-06-10T05:06:50;16.70;99.90
4207;DHT22;2117;47.972;7.830;2023-06-10T05:09:15;16.70;99.90
4207;DHT22;2117;47.972;7.830;2023-06-10T05:11:41;16.70;99.90
4207;DHT22;2117;47.972;7.830;2023-06-10T05:14:07;16.70;99.90
4207;DHT22;2117;47.972;7.830;2023-06-10T05:16:32;17.30;99.90
4207;DHT22;2117;47.972;7.830;2023-06-10T05:18:58;17.40;99.90
4207;DHT22;2117;47.972;7.830;2023-06-10T05:21:23;17.80;99.90
4207;DHT22;2117;47.972;7.830;2023-06-10T05:23:49;18.10;99.90
4207;DHT22;2117;47.972;7.830;2023-06-10T05:26:15;18.60;99.90
4207;DHT22;2117;47.972;7.830;2023-06-10T05:28:40;18.60;99.90
4207;DHT22;2117;47.972;7.830;2023-06-10T05:31:06;18.80;99.90
4207;DHT22;2117;47.972;7.830;2023-06-10T05:33:31;18.90;99.90
4207;DHT22;2117;47.972;7.830;2023-06-10T05:35:57;19.20;99.90
4207;DHT22;2117;47.972;7.830;2023-06-10T05:38:22;19.20;99.90
4207;DHT22;2117;47.972;7.830;2023-06-10T05:40:48;19.20;99.90
4207;DHT22;2117;47.972;7.830;2023-06-10T05:43:13;19.30;99.90
4207;DHT22;2117;47.972;7.830;2023-06-10T05:45:39;19.40;99.90
4207;DHT22;2117;47.972;7.830;2023-06-10T05:48:05;19.50;99.90
4207;DHT22;2117;47.972;7.830;2023-06-10T05:50:31;19.60;99.90
4207;DHT22;2117;47.972;7.830;2023-06-10T05:53:03;19.70;99.90
4207;DHT22;2117;47.972;7.830;2023-06-10T05:55:28;19.70;99.90
4207;DHT22;2117;47.972;7.830;2023-06-10T05:58:00;19.80;99.90
4207;DHT22;2117;47.972;7.830;2023-06-10T06:00:26;19.80;99.90
4207;DHT22;2117;47.972;7.830;2023-06-10T06:02:52;19.90;99.90
4207;DHT22;2117;47.972;7.830;2023-06-10T06:05:19;19.80;99.90
4207;DHT22;2117;47.972;7.830;2023-06-10T06:07:45;19.70;99.90
4207;DHT22;2117;47.972;7.830;2023-06-10T06:10:10;19.60;99.90
4207;DHT22;2117;47.972;7.830;2023-06-10T06:12:36;19.50;99.90
4207;DHT22;2117;47.972;7.830;2023-06-10T06:15:02;19.50;99.90
4207;DHT22;2117;47.972;7.830;2023-06-10T06:17:27;19.50;99.90
4207;DHT22;2117;47.972;7.830;2023-06-10T06:19:53;19.60;99.90
4207;DHT22;2117;47.972;7.830;2023-06-10T06:22:18;19.60;99.90
4207;DHT22;2117;47.972;7.830;2023-06-10T06:24:46;19.70;99.90
4207;DHT22;2117;47.972;7.830;2023-06-10T06:27:12;19.70;99.90
4207;DHT22;2117;47.972;7.830;2023-06-10T06:29:38;19.80;99.90
4207;DHT22;2117;47.972;7.830;2023-06-10T06:32:03;19.90;99.90
4207;DHT22;2117;47.972;7.830;2023-06-10T06:34:29;19.90;99.90
4207;DHT22;2117;47.972;7.830;2023-06-10T06:36:55;19.90;99.90
4207;DHT22;2117;47.972;7.830;2023-06-10T06:39:20;19.90;99.90
4207;DHT22;2117;47.972;7.830;2023-06-10T06:41:46;19.90;99.90
4207;DHT22;2117;47.972;7.830;2023-06-10T06:44:11;20.00;99.90
4207;DHT22;2117;47.972;7.830;2023-06-10T06:46:37;20.10;99.90
4207;DHT22;2117;47.972;7.830;2023-06-10T06:49:02;20.10;99.90
4207;DHT22;2117;47.972;7.830;2023-06-10T06:51:28;20.20;99.90
4207;DHT22;2117;47.972;7.830;2023-06-10T06:53:53;20.30;99.90
4207;DHT22;2117;47.972;7.830;2023-06-10T06:56:22;20.30;99.90
4207;DHT22;2117;47.972;7.830;2023-06-10T06:58:47;20.40;99.90
4207;DHT22;2117;47.972;7.830;2023-06-10T07:01:13;20.40;99.90
4207;DHT22;2117;47.972;7.830;2023-06-10T07:03:39;20.60;99.90
4207;DHT22;2117;47.972;7.830;2023-06-10T07:06:04;20.60;99.90
4207;DHT22;2117;47.972;7.830;2023-06-10T07:08:30;20.60;99.90
4207;DHT22;2117;47.972;7.830;2023-06-10T07:10:55;20.70;99.90
4207;DHT22;2117;47.972;7.830;2023-06-10T07:13:21;20.70;99.90
4207;DHT22;2117;47.972;7.830;2023-06-10T07:15:47;20.80;99.90
4207;DHT22;2117;47.972;7.830;2023-06-10T07:18:14;20.90;99.90
4207;DHT22;2117;47.972;7.830;2023-06-10T07:20:40;20.90;99.90
4207;DHT22;2117;47.972;7.830;2023-06-10T07:23:06;21.00;99.90
4207;DHT22;2117;47.972;7.830;2023-06-10T07:25:32;21.10;99.90
4207;DHT22;2117;47.972;7.830;2023-06-10T07:27:57;21.20;99.90
4207;DHT22;2117;47.972;7.830;2023-06-10T07:30:23;21.20;99.90
4207;DHT22;2117;47.972;7.830;2023-06-10T07:32:49;21.30;99.90
4207;DHT22;2117;47.972;7.830;2023-06-10T07:35:14;21.40;99.90
4207;DHT22;2117;47.972;7.830;2023-06-10T07:37:40;21.40;99.90
4207;DHT22;2117;47.972;7.830;2023-06-10T07:40:06;21.50;99.90
4207;DHT22;2117;47.972;7.830;2023-06-10T07:42:33;21.60;99.90
4207;DHT22;2117;47.972;7.830;2023-06-10T07:44:59;21.60;99.90
4207;DHT22;2117;47.972;7.830;2023-06-10T07:47:25;21.70;99.90
4207;DHT22;2117;47.972;7.830;2023-06-10T07:49:50;21.70;99.90
4207;DHT22;2117;47.972;7.830;2023-06-10T07:52:16;21.70;99.90
4207;DHT22;2117;47.972;7.830;2023-06-10T07:54:41;21.70;99.90
4207;DHT22;2117;47.972;7.830;2023-06-10T07:57:07;21.70;99.90
4207;DHT22;2117;47.972;7.830;2023-06-10T07:59:33;21.80;99.90
4207;DHT22;2117;47.972;7.830;2023-06-10T08:01:58;21.90;99.90
4207;DHT22;2117;47.972;7.830;2023-06-10T08:04:24;21.90;99.90
4207;DHT22;2117;47.972;7.830;2023-06-10T08:06:50;22.00;99.80
4207;DHT22;2117;47.972;7.830;2023-06-10T08:09:16;22.00;99.90
4207;DHT22;2117;47.972;7.830;2023-06-10T08:11:41;22.10;99.90
4207;DHT22;2117;47.972;7.830;2023-06-10T08:14:07;22.10;99.90
4207;DHT22;2117;47.972;7.830;2023-06-10T08:16:32;22.20;99.90
4207;DHT22;2117;47.972;7.830;2023-06-10T08:18:58;22.30;99.90
4207;DHT22;2117;47.972;7.830;2023-06-10T08:21:23;22.50;99.90
4207;DHT22;2117;47.972;7.830;2023-06-10T08:23:52;22.60;99.60
4207;DHT22;2117;47.972;7.830;2023-06-10T08:26:18;22.70;99.40
4207;DHT22;2117;47.972;7.830;2023-06-10T08:28:44;22.80;99.30
4207;DHT22;2117;47.972;7.830;2023-06-10T08:31:09;22.90;99.50
4207;DHT22;2117;47.972;7.830;2023-06-10T08:33:35;22.90;99.50
4207;DHT22;2117;47.972;7.830;2023-06-10T08:36:00;22.90;99.10
4207;DHT22;2117;47.972;7.830;2023-06-10T08:38:26;22.90;99.40
4207;DHT22;2117;47.972;7.830;2023-06-10T08:40:56;23.00;99.20
4207;DHT22;2117;47.972;7.830;2023-06-10T08:46:00;23.10;99.50
4207;DHT22;2117;47.972;7.830;2023-06-10T08:48:29;23.10;99.50
4207;DHT22;2117;47.972;7.830;2023-06-10T08:50:57;23.20;99.80
4207;DHT22;2117;47.972;7.830;2023-06-10T08:53:24;23.30;99.50
4207;DHT22;2117;47.972;7.830;2023-06-10T08:55:51;23.20;99.20
4207;DHT22;2117;47.972;7.830;2023-06-10T08:58:20;23.20;99.20
4207;DHT22;2117;47.972;7.830;2023-06-10T09:00:46;23.20;99.30
4207;DHT22;2117;47.972;7.830;2023-06-10T09:03:12;23.40;98.70
4207;DHT22;2117;47.972;7.830;2023-06-10T09:05:38;23.40;98.90
4207;DHT22;2117;47.972;7.830;2023-06-10T09:08:05;23.50;98.80
4207;DHT22;2117;47.972;7.830;2023-06-10T09:10:32;23.60;98.70
4207;DHT22;2117;47.972;7.830;2023-06-10T09:12:58;23.80;98.20
4207;DHT22;2117;47.972;7.830;2023-06-10T09:15:23;24.00;97.90
4207;DHT22;2117;47.972;7.830;2023-06-10T09:17:49;24.00;97.80
4207;DHT22;2117;47.972;7.830;2023-06-10T09:20:16;24.20;97.60
4207;DHT22;2117;47.972;7.830;2023-06-10T09:22:42;24.30;97.20
4207;DHT22;2117;47.972;7.830;2023-06-10T09:25:10;24.40;97.00
4207;DHT22;2117;47.972;7.830;2023-06-10T09:27:49;24.50;97.70
4207;DHT22;2117;47.972;7.830;2023-06-10T09:30:48;24.60;97.40
4207;DHT22;2117;47.972;7.830;2023-06-10T09:33:14;24.80;96.40
4207;DHT22;2117;47.972;7.830;2023-06-10T09:35:48;24.90;96.40
4207;DHT22;2117;47.972;7.830;2023-06-10T09:38:15;25.00;95.90
4207;DHT22;2117;47.972;7.830;2023-06-10T09:40:51;25.10;96.20
4207;DHT22;2117;47.972;7.830;2023-06-10T09:43:17;25.00;95.90
4207;DHT22;2117;47.972;7.830;2023-06-10T09:45:42;25.10;95.90
4207;DHT22;2117;47.972;7.830;2023-06-10T09:48:11;25.10;95.30
4207;DHT22;2117;47.972;7.830;2023-06-10T09:50:43;25.20;95.70
4207;DHT22;2117;47.972;7.830;2023-06-10T09:53:09;25.20;95.40
4207;DHT22;2117;47.972;7.830;2023-06-10T09:55:40;25.30;95.40
4207;DHT22;2117;47.972;7.830;2023-06-10T09:58:07;25.30;95.30
4207;DHT22;2117;47.972;7.830;2023-06-10T10:00:33;25.40;95.80
4207;DHT22;2117;47.972;7.830;2023-06-10T10:02:59;25.60;95.70
4207;DHT22;2117;47.972;7.830;2023-06-10T10:05:25;25.70;95.60
4207;DHT22;2117;47.972;7.830;2023-06-10T10:07:51;25.90;95.50
4207;DHT22;2117;47.972;7.830;2023-06-10T10:10:20;25.90;94.90
4207;DHT22;2117;47.972;7.830;2023-06-10T10:12:47;26.10;94.70
4207;DHT22;2117;47.972;7.830;2023-06-10T10:15:13;26.20;94.90
4207;DHT22;2117;47.972;7.830;2023-06-10T10:20:33;26.60;94.00
4207;DHT22;2117;47.972;7.830;2023-06-10T10:23:03;26.80;94.80
4207;DHT22;2117;47.972;7.830;2023-06-10T10:25:35;27.10;94.00
4207;DHT22;2117;47.972;7.830;2023-06-10T10:28:11;27.40;92.80
4207;DHT22;2117;47.972;7.830;2023-06-10T10:30:46;27.60;93.00
4207;DHT22;2117;47.972;7.830;2023-06-10T10:33:18;27.80;92.30
4207;DHT22;2117;47.972;7.830;2023-06-10T10:35:44;27.90;92.40
4207;DHT22;2117;47.972;7.830;2023-06-10T10:38:11;28.10;92.00
4207;DHT22;2117;47.972;7.830;2023-06-10T10:40:37;28.30;92.20
4207;DHT22;2117;47.972;7.830;2023-06-10T10:43:03;28.50;92.20
4207;DHT22;2117;47.972;7.830;2023-06-10T10:45:30;28.70;92.10
4207;DHT22;2117;47.972;7.830;2023-06-10T10:47:56;28.80;91.10
4207;DHT22;2117;47.972;7.830;2023-06-10T10:50:23;28.60;91.30
4207;DHT22;2117;47.972;7.830;2023-06-10T10:53:01;28.80;91.20
4207;DHT22;2117;47.972;7.830;2023-06-10T10:55:27;29.30;91.70
4207;DHT22;2117;47.972;7.830;2023-06-10T10:57:54;29.80;90.40
4207;DHT22;2117;47.972;7.830;2023-06-10T11:00:34;30.00;89.10
4207;DHT22;2117;47.972;7.830;2023-06-10T11:03:06;30.20;89.00
4207;DHT22;2117;47.972;7.830;2023-06-10T11:05:39;30.70;89.40
4207;DHT22;2117;47.972;7.830;2023-06-10T11:08:07;31.10;87.50
4207;DHT22;2117;47.972;7.830;2023-06-10T11:10:34;31.40;85.70
4207;DHT22;2117;47.972;7.830;2023-06-10T11:13:06;31.30;85.10
4207;DHT22;2117;47.972;7.830;2023-06-10T11:15:33;31.40;87.20
4207;DHT22;2117;47.972;7.830;2023-06-10T11:31:23;31.20;84.00
4207;DHT22;2117;47.972;7.830;2023-06-10T11:33:59;31.20;83.40
4207;DHT22;2117;47.972;7.830;2023-06-10T11:36:25;31.10;83.40
4207;DHT22;2117;47.972;7.830;2023-06-10T11:38:56;30.80;83.20
4207;DHT22;2117;47.972;7.830;2023-06-10T11:41:24;29.90;84.30
4207;DHT22;2117;47.972;7.830;2023-06-10T11:43:53;29.80;84.70
4207;DHT22;2117;47.972;7.830;2023-06-10T11:46:22;30.10;84.20
4207;DHT22;2117;47.972;7.830;2023-06-10T11:49:01;30.50;83.50
4207;DHT22;2117;47.972;7.830;2023-06-10T11:51:34;30.60;83.70
4207;DHT22;2117;47.972;7.830;2023-06-10T11:54:00;30.60;83.70
4207;DHT22;2117;47.972;7.830;2023-06-10T11:56:27;30.50;84.40
4207;DHT22;2117;47.972;7.830;2023-06-10T12:01:24;30.20;85.20
4207;DHT22;2117;47.972;7.830;2023-06-10T12:04:03;30.20;85.50
4207;DHT22;2117;47.972;7.830;2023-06-10T12:06:44;30.30;86.00
4207;DHT22;2117;47.972;7.830;2023-06-10T12:09:28;30.50;85.90
4207;DHT22;2117;47.972;7.830;2023-06-10T12:12:02;31.10;84.60
4207;DHT22;2117;47.972;7.830;2023-06-10T12:14:57;31.70;83.60
4207;DHT22;2117;47.972;7.830;2023-06-10T12:19:59;32.50;78.10
4207;DHT22;2117;47.972;7.830;2023-06-10T12:22:25;32.30;78.20
4207;DHT22;2117;47.972;7.830;2023-06-10T12:25:05;31.80;78.10
4207;DHT22;2117;47.972;7.830;2023-06-10T12:27:33;31.50;78.90
4207;DHT22;2117;47.972;7.830;2023-06-10T12:30:00;31.40;78.60
4207;DHT22;2117;47.972;7.830;2023-06-10T12:32:44;31.70;79.00
4207;DHT22;2117;47.972;7.830;2023-06-10T12:35:12;31.90;78.40
4207;DHT22;2117;47.972;7.830;2023-06-10T12:37:39;31.90;79.90
4207;DHT22;2117;47.972;7.830;2023-06-10T12:40:05;31.70;79.50
4207;DHT22;2117;47.972;7.830;2023-06-10T12:42:32;31.50;80.90
4207;DHT22;2117;47.972;7.830;2023-06-10T12:44:59;31.10;81.00
4207;DHT22;2117;47.972;7.830;2023-06-10T12:47:35;30.90;81.20
4207;DHT22;2117;47.972;7.830;2023-06-10T12:50:03;30.60;82.30
4207;DHT22;2117;47.972;7.830;2023-06-10T12:52:29;30.30;84.00
4207;DHT22;2117;47.972;7.830;2023-06-10T12:54:55;30.00;87.60
4207;DHT22;2117;47.972;7.830;2023-06-10T12:57:21;29.60;89.70
4207;DHT22;2117;47.972;7.830;2023-06-10T12:59:47;29.30;91.80
4207;DHT22;2117;47.972;7.830;2023-06-10T13:02:20;28.90;93.30
4207;DHT22;2117;47.972;7.830;2023-06-10T13:04:49;28.70;94.90
4207;DHT22;2117;47.972;7.830;2023-06-10T13:07:15;28.30;93.60
4207;DHT22;2117;47.972;7.830;2023-06-10T13:09:41;28.00;93.20
4207;DHT22;2117;47.972;7.830;2023-06-10T13:12:07;27.80;94.50
4207;DHT22;2117;47.972;7.830;2023-06-10T13:14:33;27.60;95.00
4207;DHT22;2117;47.972;7.830;2023-06-10T13:16:58;27.30;96.10
4207;DHT22;2117;47.972;7.830;2023-06-10T13:19:24;27.30;96.40
4207;DHT22;2117;47.972;7.830;2023-06-10T13:21:50;27.30;96.90
4207;DHT22;2117;47.972;7.830;2023-06-10T13:24:16;27.70;97.20
4207;DHT22;2117;47.972;7.830;2023-06-10T13:26:42;28.00;95.60
4207;DHT22;2117;47.972;7.830;2023-06-10T13:29:07;28.00;95.90
4207;DHT22;2117;47.972;7.830;2023-06-10T13:31:39;28.00;95.40
4207;DHT22;2117;47.972;7.830;2023-06-10T13:34:04;28.00;95.60
4207;DHT22;2117;47.972;7.830;2023-06-10T13:36:30;28.00;95.70
4207;DHT22;2117;47.972;7.830;2023-06-10T13:38:55;28.20;96.50
4207;DHT22;2117;47.972;7.830;2023-06-10T13:41:21;28.70;97.00
4207;DHT22;2117;47.972;7.830;2023-06-10T13:43:46;29.30;95.10
4207;DHT22;2117;47.972;7.830;2023-06-10T13:46:12;29.80;94.00
4207;DHT22;2117;47.972;7.830;2023-06-10T13:48:38;29.90;93.90
4207;DHT22;2117;47.972;7.830;2023-06-10T13:51:04;30.00;91.10
4207;DHT22;2117;47.972;7.830;2023-06-10T13:53:29;30.10;89.40
4207;DHT22;2117;47.972;7.830;2023-06-10T13:55:55;30.30;90.40
4207;DHT22;2117;47.972;7.830;2023-06-10T13:58:21;30.50;90.20
4207;DHT22;2117;47.972;7.830;2023-06-10T14:00:46;30.60;88.70
4207;DHT22;2117;47.972;7.830;2023-06-10T14:03:12;31.00;87.50
4207;DHT22;2117;47.972;7.830;2023-06-10T14:05:38;31.30;88.30
4207;DHT22;2117;47.972;7.830;2023-06-10T14:08:04;31.40;86.20
4207;DHT22;2117;47.972;7.830;2023-06-10T14:10:30;31.70;84.70
4207;DHT22;2117;47.972;7.830;2023-06-10T14:12:55;31.80;85.50
4207;DHT22;2117;47.972;7.830;2023-06-10T14:15:21;32.40;84.40
4207;DHT22;2117;47.972;7.830;2023-06-10T14:17:47;33.10;80.90
4207;DHT22;2117;47.972;7.830;2023-06-10T14:20:12;34.40;77.60
4207;DHT22;2117;47.972;7.830;2023-06-10T14:22:38;34.00;79.30
4207;DHT22;2117;47.972;7.830;2023-06-10T14:25:04;34.60;77.50
4207;DHT22;2117;47.972;7.830;2023-06-10T14:27:30;35.00;77.90
4207;DHT22;2117;47.972;7.830;2023-06-10T14:29:55;35.80;73.70
4207;DHT22;2117;47.972;7.830;2023-06-10T14:32:21;35.80;75.40
4207;DHT22;2117;47.972;7.830;2023-06-10T14:34:46;36.00;72.20
4207;DHT22;2117;47.972;7.830;2023-06-10T14:37:12;36.20;71.40
4207;DHT22;2117;47.972;7.830;2023-06-10T14:39:38;36.80;70.80
4207;DHT22;2117;47.972;7.830;2023-06-10T14:42:04;36.80;71.40
4207;DHT22;2117;47.972;7.830;2023-06-10T14:44:30;36.60;72.30
4207;DHT22;2117;47.972;7.830;2023-06-10T14:46:56;36.30;71.90
4207;DHT22;2117;47.972;7.830;2023-06-10T14:49:22;36.30;73.30
4207;DHT22;2117;47.972;7.830;2023-06-10T14:51:47;36.20;67.70
4207;DHT22;2117;47.972;7.830;2023-06-10T14:56:41;35.00;69.60
4207;DHT22;2117;47.972;7.830;2023-06-10T14:59:06;35.40;70.00
4207;DHT22;2117;47.972;7.830;2023-06-10T15:13:42;35.70;70.20
4207;DHT22;2117;47.972;7.830;2023-06-10T15:16:08;35.70;70.20
4207;DHT22;2117;47.972;7.830;2023-06-10T15:21:00;36.20;70.90
4207;DHT22;2117;47.972;7.830;2023-06-10T15:23:25;36.30;71.40
4207;DHT22;2117;47.972;7.830;2023-06-10T15:25:51;36.60;70.40
4207;DHT22;2117;47.972;7.830;2023-06-10T15:28:16;36.50;68.20
4207;DHT22;2117;47.972;7.830;2023-06-10T15:30:43;36.20;67.40
4207;DHT22;2117;47.972;7.830;2023-06-10T15:33:08;36.10;67.30
4207;DHT22;2117;47.972;7.830;2023-06-10T15:35:34;36.10;67.50
4207;DHT22;2117;47.972;7.830;2023-06-10T15:37:59;36.30;69.20
4207;DHT22;2117;47.972;7.830;2023-06-10T15:40:25;36.30;67.50
4207;DHT22;2117;47.972;7.830;2023-06-10T15:42:51;36.30;67.80
4207;DHT22;2117;47.972;7.830;2023-06-10T15:45:17;36.10;68.80
4207;DHT22;2117;47.972;7.830;2023-06-10T15:47:43;35.80;67.90
4207;DHT22;2117;47.972;7.830;2023-06-10T15:50:08;35.50;69.20
4207;DHT22;2117;47.972;7.830;2023-06-10T15:52:34;35.30;69.60
4207;DHT22;2117;47.972;7.830;2023-06-10T15:55:00;34.90;70.60
4207;DHT22;2117;47.972;7.830;2023-06-10T15:57:26;34.40;71.90
4207;DHT22;2117;47.972;7.830;2023-06-10T15:59:52;33.70;72.40
4207;DHT22;2117;47.972;7.830;2023-06-10T16:02:18;33.70;73.20
4207;DHT22;2117;47.972;7.830;2023-06-10T16:04:43;33.40;74.40
4207;DHT22;2117;47.972;7.830;2023-06-10T16:07:09;33.20;74.30
4207;DHT22;2117;47.972;7.830;2023-06-10T16:09:35;33.50;74.80
4207;DHT22;2117;47.972;7.830;2023-06-10T16:12:00;33.50;75.60
4207;DHT22;2117;47.972;7.830;2023-06-10T16:14:26;34.20;71.90
4207;DHT22;2117;47.972;7.830;2023-06-10T16:16:52;34.80;69.80
4207;DHT22;2117;47.972;7.830;2023-06-10T16:19:17;35.70;69.30
4207;DHT22;2117;47.972;7.830;2023-06-10T16:21:43;35.70;68.20
4207;DHT22;2117;47.972;7.830;2023-06-10T16:24:08;35.60;66.80
4207;DHT22;2117;47.972;7.830;2023-06-10T16:26:34;35.40;68.40
4207;DHT22;2117;47.972;7.830;2023-06-10T16:29:00;34.90;69.40
4207;DHT22;2117;47.972;7.830;2023-06-10T16:31:25;34.20;68.90
4207;DHT22;2117;47.972;7.830;2023-06-10T16:33:51;33.80;71.30
4207;DHT22;2117;47.972;7.830;2023-06-10T16:36:17;33.40;72.10
4207;DHT22;2117;47.972;7.830;2023-06-10T16:38:42;33.00;73.80
4207;DHT22;2117;47.972;7.830;2023-06-10T16:41:08;32.50;73.30
4207;DHT22;2117;47.972;7.830;2023-06-10T16:43:33;32.00;73.50
4207;DHT22;2117;47.972;7.830;2023-06-10T16:45:59;31.70;74.50
4207;DHT22;2117;47.972;7.830;2023-06-10T16:48:24;31.40;76.00
4207;DHT22;2117;47.972;7.830;2023-06-10T16:50:50;31.00;73.60
4207;DHT22;2117;47.972;7.830;2023-06-10T16:53:16;30.90;75.70
4207;DHT22;2117;47.972;7.830;2023-06-10T16:55:41;30.70;75.60
4207;DHT22;2117;47.972;7.830;2023-06-10T16:58:07;30.50;76.30
4207;DHT22;2117;47.972;7.830;2023-06-10T17:00:33;30.10;76.00
4207;DHT22;2117;47.972;7.830;2023-06-10T17:02:58;30.10;77.50
4207;DHT22;2117;47.972;7.830;2023-06-10T17:05:25;30.00;77.90
4207;DHT22;2117;47.972;7.830;2023-06-10T17:07:50;30.00;78.00
4207;DHT22;2117;47.972;7.830;2023-06-10T17:10:16;30.00;76.30
4207;DHT22;2117;47.972;7.830;2023-06-10T17:12:42;30.00;77.90
4207;DHT22;2117;47.972;7.830;2023-06-10T17:15:08;29.90;77.40
4207;DHT22;2117;47.972;7.830;2023-06-10T17:17:33;29.90;79.90
4207;DHT22;2117;47.972;7.830;2023-06-10T17:20:00;29.60;83.30
4207;DHT22;2117;47.972;7.830;2023-06-10T17:22:26;29.50;84.00
4207;DHT22;2117;47.972;7.830;2023-06-10T17:24:51;29.30;88.40
4207;DHT22;2117;47.972;7.830;2023-06-10T17:27:17;28.90;91.00
4207;DHT22;2117;47.972;7.830;2023-06-10T17:29:42;28.30;93.80
4207;DHT22;2117;47.972;7.830;2023-06-10T17:32:08;28.30;94.00
4207;DHT22;2117;47.972;7.830;2023-06-10T17:34:34;27.90;96.20
4207;DHT22;2117;47.972;7.830;2023-06-10T17:37:00;27.70;97.20
4207;DHT22;2117;47.972;7.830;2023-06-10T17:39:26;27.40;98.40
4207;DHT22;2117;47.972;7.830;2023-06-10T17:41:52;27.10;97.80